createdAt,value
2023-01-31T00:01:58.672Z,2.50
2023-01-31T00:05:20.919Z,2.40
2023-01-31T00:08:44.483Z,2.40
2023-01-31T00:12:06.060Z,2.40
2023-01-31T00:15:27.669Z,2.40
2023-01-31T00:18:49.702Z,2.40
2023-01-31T00:22:11.289Z,2.40
2023-01-31T00:25:34.752Z,2.40
2023-01-31T00:28:57.079Z,2.40
2023-01-31T00:32:18.759Z,2.30
2023-01-31T00:35:40.427Z,2.20
2023-01-31T00:39:03.260Z,2.10
2023-01-31T00:42:26.181Z,1.90
2023-01-31T00:45:47.874Z,1.80
2023-01-31T00:49:09.613Z,1.70
2023-01-31T00:52:31.399Z,1.70
2023-01-31T00:55:53.893Z,1.70
2023-01-31T00:59:16.938Z,1.70
2023-01-31T01:02:38.510Z,1.60
2023-01-31T01:06:00.132Z,1.60
2023-01-31T01:09:21.773Z,1.50
2023-01-31T01:12:43.477Z,1.40
2023-01-31T01:16:07.498Z,1.40
2023-01-31T01:19:29.119Z,1.40
2023-01-31T01:22:50.735Z,1.50
2023-01-31T01:26:16.060Z,1.50
2023-01-31T01:29:37.953Z,1.50
2023-01-31T01:33:00.871Z,1.60
2023-01-31T01:36:22.747Z,1.70
2023-01-31T01:39:44.327Z,1.70
2023-01-31T01:43:06.099Z,1.80
2023-01-31T01:46:29.772Z,1.80
2023-01-31T01:49:54.985Z,1.90
2023-01-31T01:53:19.202Z,1.90
2023-01-31T01:56:42.694Z,1.90
2023-01-31T02:00:08.375Z,1.90
2023-01-31T02:03:29.965Z,1.90
2023-01-31T02:06:53.245Z,1.80
2023-01-31T02:10:17.486Z,1.80
2023-01-31T02:13:39.909Z,1.80
2023-01-31T02:17:01.583Z,1.80
2023-01-31T02:20:41.185Z,1.80
2023-01-31T02:24:13.124Z,1.80
2023-01-31T02:27:48.733Z,1.80
2023-01-31T02:31:34.048Z,1.80
2023-01-31T02:35:01.909Z,1.70
2023-01-31T02:38:30.101Z,1.70
2023-01-31T02:41:54.719Z,1.70
2023-01-31T02:45:19.467Z,1.70
2023-01-31T02:48:44.734Z,1.70
2023-01-31T02:52:13.324Z,1.70
2023-01-31T02:55:36.555Z,1.70
2023-01-31T02:59:00.869Z,1.70
2023-01-31T03:02:23.204Z,1.70
2023-01-31T03:05:44.814Z,1.80
2023-01-31T03:09:10.196Z,1.80
2023-01-31T03:12:36.391Z,1.90
2023-01-31T03:16:02.497Z,1.90
2023-01-31T03:19:27.668Z,1.90
2023-01-31T03:22:50.843Z,1.90
2023-01-31T03:26:14.083Z,1.90
2023-01-31T03:29:36.363Z,1.90
2023-01-31T03:33:00.638Z,1.90
2023-01-31T03:36:26.734Z,1.80
2023-01-31T03:39:53.797Z,1.80
2023-01-31T03:43:20.575Z,1.80
2023-01-31T03:46:44.475Z,1.80
2023-01-31T03:50:07.290Z,1.80
2023-01-31T03:53:31.177Z,1.80
2023-01-31T03:56:55.025Z,1.70
2023-01-31T04:00:19.956Z,1.80
2023-01-31T04:03:43.540Z,1.70
2023-01-31T04:07:05.325Z,1.70
2023-01-31T04:10:27.008Z,1.70
2023-01-31T04:13:48.615Z,1.60
2023-01-31T04:17:11.979Z,1.60
2023-01-31T04:20:33.642Z,1.50
2023-01-31T04:23:55.231Z,1.40
2023-01-31T04:27:16.860Z,1.30
2023-01-31T04:30:38.453Z,1.40
2023-01-31T04:34:01.436Z,1.40
2023-01-31T04:37:23.048Z,1.50
2023-01-31T04:40:44.968Z,1.50
2023-01-31T04:44:06.581Z,1.60
2023-01-31T04:47:28.160Z,1.60
2023-01-31T04:50:51.132Z,1.50
2023-01-31T04:54:12.779Z,1.50
2023-01-31T04:57:34.379Z,1.50
2023-01-31T05:00:55.991Z,1.50
2023-01-31T05:04:17.601Z,1.50
2023-01-31T05:07:40.819Z,1.50
2023-01-31T05:11:04.377Z,1.40
2023-01-31T05:14:26.242Z,1.50
2023-01-31T05:17:51.404Z,1.50
2023-01-31T05:21:13.008Z,1.50
2023-01-31T05:24:35.984Z,1.40
2023-01-31T05:27:57.577Z,1.40
2023-01-31T05:31:19.393Z,1.50
2023-01-31T05:34:41.045Z,1.40
2023-01-31T05:38:02.625Z,1.40
2023-01-31T05:41:25.586Z,1.40
2023-01-31T05:44:47.669Z,1.40
2023-01-31T05:48:09.553Z,1.40
2023-01-31T05:51:31.303Z,1.40
2023-01-31T05:54:52.883Z,1.40
2023-01-31T05:58:15.844Z,1.40
2023-01-31T06:01:37.458Z,1.50
2023-01-31T06:04:59.379Z,1.50
2023-01-31T06:08:21.054Z,1.50
2023-01-31T06:11:42.636Z,1.50
2023-01-31T06:15:06.273Z,1.40
2023-01-31T06:18:27.861Z,1.30
2023-01-31T06:21:49.439Z,1.20
2023-01-31T06:25:11.028Z,1.20
2023-01-31T06:28:33.045Z,1.10
2023-01-31T06:31:56.499Z,1.10
2023-01-31T06:35:18.582Z,1.00
2023-01-31T06:38:40.461Z,1.00
2023-01-31T06:42:02.026Z,0.90
2023-01-31T06:45:23.624Z,0.90
2023-01-31T06:48:46.571Z,0.90
2023-01-31T06:52:08.176Z,0.90
2023-01-31T06:55:30.422Z,0.90
2023-01-31T06:58:52.035Z,0.90
2023-01-31T07:02:13.596Z,0.90
2023-01-31T07:05:36.537Z,0.90
2023-01-31T07:08:58.195Z,0.90
2023-01-31T07:12:19.782Z,0.90
2023-01-31T07:15:41.729Z,0.90
2023-01-31T07:19:03.487Z,0.90
2023-01-31T07:22:26.407Z,0.90
2023-01-31T07:25:47.986Z,0.90
2023-01-31T07:29:09.757Z,0.90
2023-01-31T07:32:31.333Z,0.90
2023-01-31T07:35:52.945Z,0.90
2023-01-31T07:39:15.966Z,1.00
2023-01-31T07:42:37.589Z,1.00
2023-01-31T07:45:59.197Z,1.10
2023-01-31T07:49:20.831Z,1.10
2023-01-31T07:52:42.492Z,1.20
2023-01-31T07:56:09.377Z,1.30
2023-01-31T07:59:30.992Z,1.30
2023-01-31T08:02:52.784Z,1.40
2023-01-31T08:06:14.463Z,1.50
2023-01-31T08:09:36.310Z,1.50
2023-01-31T08:12:59.313Z,1.60
2023-01-31T08:16:20.985Z,1.60
2023-01-31T08:19:42.588Z,1.70
2023-01-31T08:23:04.213Z,1.80
2023-01-31T08:26:25.834Z,1.90
2023-01-31T08:29:48.801Z,2.10
2023-01-31T08:33:11.033Z,2.20
2023-01-31T08:36:32.987Z,2.40
2023-01-31T08:39:54.640Z,2.80
2023-01-31T08:43:16.231Z,3.30
2023-01-31T08:46:39.191Z,3.80
2023-01-31T08:50:00.787Z,4.30
2023-01-31T08:53:22.379Z,4.40
2023-01-31T08:56:43.990Z,4.90
2023-01-31T09:00:06.346Z,5.10
2023-01-31T09:03:29.256Z,5.00
2023-01-31T09:06:50.853Z,4.60
2023-01-31T09:10:12.520Z,4.60
2023-01-31T09:13:34.382Z,5.20
2023-01-31T09:16:56.016Z,6.00
2023-01-31T09:20:19.102Z,6.30
2023-01-31T09:23:42.726Z,6.60
2023-01-31T09:27:04.522Z,6.40
2023-01-31T09:30:26.277Z,6.60
2023-01-31T09:33:47.923Z,6.10
2023-01-31T09:37:10.875Z,5.90
2023-01-31T09:40:33.729Z,6.00
2023-01-31T09:43:58.103Z,5.90
2023-01-31T09:47:21.975Z,5.50
2023-01-31T09:50:46.142Z,5.50
2023-01-31T09:54:16.376Z,5.60
2023-01-31T09:57:41.779Z,5.30
2023-01-31T10:01:09.206Z,5.40
2023-01-31T10:04:38.416Z,5.40
2023-01-31T10:08:03.400Z,5.40
2023-01-31T10:11:30.725Z,5.50
2023-01-31T10:14:53.904Z,5.50
2023-01-31T10:18:17.555Z,5.50
2023-01-31T10:21:42.380Z,5.40
2023-01-31T10:25:08.648Z,5.40
2023-01-31T10:28:34.134Z,5.50
2023-01-31T10:31:57.352Z,5.30
2023-01-31T10:35:23.329Z,5.40
2023-01-31T10:38:52.038Z,5.20
2023-01-31T10:42:17.960Z,5.30
2023-01-31T10:45:41.125Z,5.00
2023-01-31T10:49:02.867Z,4.80
2023-01-31T10:52:32.583Z,4.80
2023-01-31T10:55:59.215Z,5.00
2023-01-31T10:59:23.734Z,5.20
2023-01-31T11:02:46.669Z,5.40
2023-01-31T11:06:11.836Z,5.60
2023-01-31T11:09:35.163Z,5.70
2023-01-31T11:12:57.545Z,5.80
2023-01-31T11:16:19.174Z,5.80
2023-01-31T11:19:45.184Z,5.70
2023-01-31T11:23:07.003Z,5.60
2023-01-31T11:26:30.188Z,5.80
2023-01-31T11:29:51.869Z,6.00
2023-01-31T11:33:36.618Z,6.20
2023-01-31T11:37:05.299Z,6.30
2023-01-31T11:40:28.649Z,6.40
2023-01-31T11:43:50.259Z,6.20
2023-01-31T11:47:12.230Z,6.10
2023-01-31T11:50:36.457Z,6.00
2023-01-31T11:53:59.460Z,6.10
2023-01-31T11:57:22.658Z,6.10
2023-01-31T12:00:51.388Z,6.20
2023-01-31T12:04:15.873Z,6.20
2023-01-31T12:07:47.313Z,6.10
2023-01-31T12:11:22.854Z,6.20
2023-01-31T12:14:47.497Z,6.30
2023-01-31T12:18:10.850Z,6.20
2023-01-31T12:21:43.245Z,6.00
2023-01-31T12:25:12.127Z,5.90
2023-01-31T12:28:39.852Z,5.70
2023-01-31T12:32:06.864Z,5.90
2023-01-31T12:35:36.382Z,5.80
2023-01-31T12:39:02.677Z,5.70
2023-01-31T12:42:41.978Z,5.50
2023-01-31T12:46:11.693Z,5.40
2023-01-31T12:49:42.459Z,5.60
2023-01-31T12:53:16.023Z,5.60
2023-01-31T12:56:43.758Z,5.40
2023-01-31T13:00:13.218Z,5.50
2023-01-31T13:03:46.209Z,5.50
2023-01-31T13:07:09.576Z,5.60
2023-01-31T13:10:35.426Z,5.60
2023-01-31T13:13:59.923Z,5.40
2023-01-31T13:17:23.898Z,5.30
2023-01-31T13:20:48.568Z,5.30
2023-01-31T13:24:12.227Z,5.20
2023-01-31T13:27:38.113Z,5.30
2023-01-31T13:31:01.759Z,5.40
2023-01-31T13:34:25.415Z,5.40
2023-01-31T13:37:49.515Z,5.20
2023-01-31T13:41:13.955Z,5.00
2023-01-31T13:44:35.537Z,5.00
2023-01-31T13:47:59.682Z,4.90
2023-01-31T13:51:23.113Z,4.90
2023-01-31T13:54:48.433Z,4.90
2023-01-31T13:58:16.691Z,4.80
2023-01-31T14:01:44.212Z,4.80
2023-01-31T14:05:07.456Z,4.80
2023-01-31T14:08:30.823Z,4.70
2023-01-31T14:11:55.367Z,4.70
2023-01-31T14:15:46.316Z,4.70
2023-01-31T14:19:26.594Z,4.70
2023-01-31T14:23:20.021Z,4.60
2023-01-31T14:26:51.352Z,4.70
2023-01-31T14:30:30.682Z,4.50
2023-01-31T14:33:54.650Z,4.60
2023-01-31T14:37:23.881Z,4.60
2023-01-31T14:40:49.258Z,4.60
2023-01-31T14:44:17.013Z,4.50
2023-01-31T14:47:47.201Z,4.40
2023-01-31T14:51:12.664Z,4.40
2023-01-31T14:54:44.237Z,4.50
2023-01-31T14:58:06.841Z,4.60
2023-01-31T15:01:33.160Z,4.60
2023-01-31T15:04:56.086Z,4.60
2023-01-31T15:08:37.818Z,4.50
2023-01-31T15:11:59.533Z,4.50
2023-01-31T15:15:25.316Z,4.60
2023-01-31T15:18:48.153Z,4.50
2023-01-31T15:22:11.157Z,4.50
2023-01-31T15:25:35.276Z,4.60
2023-01-31T15:28:57.070Z,4.50
2023-01-31T15:32:20.057Z,4.50
2023-01-31T15:35:46.192Z,4.50
2023-01-31T15:39:18.361Z,4.50
2023-01-31T15:42:41.289Z,4.40
2023-01-31T15:46:12.418Z,4.40
2023-01-31T15:49:41.203Z,4.30
2023-01-31T15:53:03.373Z,4.30
2023-01-31T15:56:26.514Z,4.30
2023-01-31T15:59:49.742Z,4.20
2023-01-31T16:03:18.758Z,4.30
2023-01-31T16:06:40.483Z,4.20
2023-01-31T16:10:02.428Z,4.20
2023-01-31T16:13:25.896Z,4.20
2023-01-31T16:16:49.745Z,4.10
2023-01-31T16:20:26.251Z,4.10
2023-01-31T16:23:56.625Z,4.10
2023-01-31T16:27:18.295Z,4.10
2023-01-31T16:30:41.942Z,4.10
2023-01-31T16:34:09.156Z,4.10
2023-01-31T16:37:33.310Z,4.20
2023-01-31T16:40:55.963Z,4.20
2023-01-31T16:44:18.780Z,4.20
2023-01-31T16:47:47.085Z,4.20
2023-01-31T16:51:29.568Z,4.20
2023-01-31T16:54:53.279Z,4.20
2023-01-31T16:58:34.996Z,4.20
2023-01-31T17:02:02.588Z,4.10
2023-01-31T17:05:25.845Z,4.20
2023-01-31T17:08:47.711Z,4.20
2023-01-31T17:12:16.918Z,4.10
2023-01-31T17:15:39.999Z,4.10
2023-01-31T17:19:01.597Z,4.10
2023-01-31T17:22:23.199Z,4.10
2023-01-31T17:25:44.936Z,4.10
2023-01-31T17:29:07.926Z,4.10
2023-01-31T17:32:32.158Z,4.10
2023-01-31T17:35:53.893Z,4.10
2023-01-31T17:39:15.504Z,4.10
2023-01-31T17:42:37.119Z,4.10
2023-01-31T17:46:00.149Z,4.10
2023-01-31T17:49:22.002Z,4.10
2023-01-31T17:52:43.659Z,4.10
2023-01-31T17:56:05.724Z,4.00
2023-01-31T17:59:27.776Z,4.10
2023-01-31T18:02:52.591Z,4.00
2023-01-31T18:06:14.759Z,4.00
2023-01-31T18:09:36.365Z,4.00
2023-01-31T18:12:57.980Z,4.00
2023-01-31T18:16:19.872Z,4.00
2023-01-31T18:19:42.826Z,4.00
2023-01-31T18:23:04.461Z,4.00
2023-01-31T18:26:26.137Z,4.00
2023-01-31T18:29:47.745Z,4.00
2023-01-31T18:33:09.345Z,4.00
2023-01-31T18:36:32.292Z,4.00
2023-01-31T18:39:54.063Z,4.00
2023-01-31T18:43:15.727Z,4.00
2023-01-31T18:46:38.611Z,4.00
2023-01-31T18:50:00.379Z,4.00
2023-01-31T18:53:23.369Z,4.00
2023-01-31T18:56:44.972Z,4.00
2023-01-31T19:00:07.165Z,4.10
2023-01-31T19:03:29.956Z,4.00
2023-01-31T19:06:51.979Z,4.00
2023-01-31T19:10:15.077Z,4.00
2023-01-31T19:13:37.230Z,4.10
2023-01-31T19:16:58.842Z,4.00
2023-01-31T19:20:20.436Z,4.00
2023-01-31T19:23:42.062Z,4.10
2023-01-31T19:27:05.278Z,4.10
2023-01-31T19:30:26.929Z,4.00
2023-01-31T19:33:49.011Z,4.00
2023-01-31T19:37:10.618Z,4.00
2023-01-31T19:40:32.273Z,4.00
2023-01-31T19:43:55.885Z,4.00
2023-01-31T19:47:17.469Z,4.00
2023-01-31T19:50:39.140Z,4.00
2023-01-31T19:54:01.386Z,3.90
2023-01-31T19:57:23.215Z,3.90
2023-01-31T20:00:46.266Z,3.90
2023-01-31T20:04:07.955Z,3.90
2023-01-31T20:07:29.577Z,3.80
2023-01-31T20:10:53.689Z,3.80
2023-01-31T20:14:15.266Z,3.70
2023-01-31T20:17:38.245Z,3.70
2023-01-31T20:20:59.894Z,3.60
2023-01-31T20:24:21.486Z,3.60
2023-01-31T20:27:43.201Z,3.60
2023-01-31T20:31:05.872Z,3.50
2023-01-31T20:34:28.927Z,3.40
2023-01-31T20:37:50.663Z,3.40
2023-01-31T20:41:12.291Z,3.40
2023-01-31T20:44:33.883Z,3.50
2023-01-31T20:47:55.502Z,3.60
2023-01-31T20:51:18.635Z,3.60
2023-01-31T20:54:40.232Z,3.60
2023-01-31T20:58:01.924Z,3.70
2023-01-31T21:01:23.631Z,3.70
2023-01-31T21:04:45.738Z,3.70
2023-01-31T21:08:15.652Z,3.70
2023-01-31T21:11:38.203Z,3.70
2023-01-31T21:14:59.883Z,3.70
2023-01-31T21:18:22.713Z,3.70
2023-01-31T21:21:44.511Z,3.70
2023-01-31T21:25:07.839Z,3.70
2023-01-31T21:28:29.476Z,3.70
2023-01-31T21:31:51.223Z,3.60
2023-01-31T21:35:13.094Z,3.60
2023-01-31T21:38:35.028Z,3.50
2023-01-31T21:41:58.239Z,3.30
2023-01-31T21:45:20.364Z,3.20
2023-01-31T21:48:42.288Z,3.10
2023-01-31T21:52:04.636Z,3.10
2023-01-31T21:55:26.307Z,3.10
2023-01-31T21:58:49.656Z,3.20
2023-01-31T22:02:11.319Z,3.30
2023-01-31T22:05:33.475Z,3.40
2023-01-31T22:08:56.690Z,3.50
2023-01-31T22:12:18.365Z,3.50
2023-01-31T22:15:41.580Z,3.50
2023-01-31T22:19:03.584Z,3.60
2023-01-31T22:22:25.394Z,3.70
2023-01-31T22:25:47.278Z,3.70
2023-01-31T22:29:10.039Z,3.80
2023-01-31T22:32:33.127Z,3.80
2023-01-31T22:35:54.735Z,3.90
2023-01-31T22:39:16.551Z,3.90
2023-01-31T22:42:38.272Z,3.90
2023-01-31T22:46:00.395Z,4.00
2023-01-31T22:49:23.529Z,4.00
2023-01-31T22:52:47.159Z,4.10
2023-01-31T22:56:11.190Z,4.00
2023-01-31T22:59:32.834Z,4.00
2023-01-31T23:02:54.425Z,3.90
2023-01-31T23:06:17.796Z,3.80
2023-01-31T23:09:39.492Z,3.60
2023-01-31T23:13:01.094Z,3.60
2023-01-31T23:16:23.409Z,3.50
2023-01-31T23:19:45.064Z,3.40
2023-01-31T23:23:08.010Z,3.40
2023-01-31T23:26:29.687Z,3.40
2023-01-31T23:29:51.284Z,3.40
2023-01-31T23:33:13.549Z,3.40
2023-01-31T23:36:35.254Z,3.40
2023-01-31T23:39:58.231Z,3.40
2023-01-31T23:43:19.862Z,3.50
2023-01-31T23:46:41.512Z,3.40
2023-01-31T23:50:03.229Z,3.40
2023-01-31T23:53:27.259Z,3.50
2023-01-31T23:56:50.965Z,3.50
